createdAt,value
2024-01-05T00:01:34.305Z,2.70
2024-01-05T00:04:02.849Z,2.60
2024-01-05T00:06:31.551Z,3.20
2024-01-05T00:09:00.087Z,2.40
2024-01-05T00:11:28.441Z,2.50
2024-01-05T00:13:56.699Z,2.40
2024-01-05T00:16:25.225Z,2.30
2024-01-05T00:18:53.604Z,2.30
2024-01-05T00:21:29.192Z,2.60
2024-01-05T00:23:58.213Z,2.60
2024-01-05T00:26:26.630Z,2.70
2024-01-05T00:28:54.803Z,2.20
2024-01-05T00:31:23.134Z,3.10
2024-01-05T00:33:51.569Z,3.00
2024-01-05T00:36:20.260Z,2.90
2024-01-05T00:38:49.505Z,3.40
2024-01-05T00:41:18.172Z,4.10
2024-01-05T00:43:46.433Z,3.10
2024-01-05T00:46:16.094Z,3.30
2024-01-05T00:48:44.598Z,3.30
2024-01-05T00:51:13.133Z,4.10
2024-01-05T00:53:41.466Z,3.30
2024-01-05T00:56:09.861Z,3.10
2024-01-05T00:58:39.142Z,3.10
2024-01-05T01:01:08.286Z,3.30
2024-01-05T01:03:37.345Z,3.00
2024-01-05T01:06:05.825Z,3.00
2024-01-05T01:08:34.167Z,2.80
2024-01-05T01:11:03.139Z,2.70
2024-01-05T01:13:31.459Z,3.00
2024-01-05T01:15:59.691Z,2.70
2024-01-05T01:18:29.362Z,3.00
2024-01-05T01:20:57.917Z,3.00
2024-01-05T01:23:26.226Z,2.50
2024-01-05T01:25:54.388Z,2.90
2024-01-05T01:28:23.147Z,2.80
2024-01-05T01:30:51.679Z,2.80
2024-01-05T01:33:20.173Z,2.80
2024-01-05T01:35:48.446Z,2.60
2024-01-05T01:38:16.892Z,4.00
2024-01-05T01:40:49.109Z,3.20
2024-01-05T01:43:22.694Z,3.40
2024-01-05T01:45:53.234Z,2.40
2024-01-05T01:48:22.203Z,2.80
2024-01-05T01:50:53.236Z,2.70
2024-01-05T01:53:24.760Z,2.60
2024-01-05T01:55:53.712Z,2.50
2024-01-05T01:58:24.219Z,2.80
2024-01-05T02:00:53.000Z,3.10
2024-01-05T02:03:21.838Z,2.90
2024-01-05T02:05:50.285Z,3.20
2024-01-05T02:08:20.261Z,3.20
2024-01-05T02:10:48.653Z,3.30
2024-01-05T02:13:17.272Z,3.50
2024-01-05T02:15:45.475Z,3.10
2024-01-05T02:18:15.946Z,3.10
2024-01-05T02:20:46.210Z,3.20
2024-01-05T02:23:26.385Z,2.70
2024-01-05T02:25:59.144Z,3.30
2024-01-05T02:28:28.011Z,3.20
2024-01-05T02:30:57.903Z,2.90
2024-01-05T02:33:26.622Z,3.30
2024-01-05T02:35:55.436Z,3.60
2024-01-05T02:38:23.773Z,3.30
2024-01-05T02:40:52.135Z,4.00
2024-01-05T02:43:20.435Z,3.10
2024-01-05T02:45:48.656Z,3.40
2024-01-05T02:48:17.020Z,3.50
2024-01-05T02:50:45.514Z,3.40
2024-01-05T02:53:13.661Z,3.50
2024-01-05T02:55:41.939Z,4.50
2024-01-05T02:58:10.318Z,3.60
2024-01-05T03:00:38.648Z,4.40
2024-01-05T03:03:07.283Z,4.60
2024-01-05T03:05:35.805Z,3.90
2024-01-05T03:08:04.533Z,4.60
2024-01-05T03:10:32.810Z,4.20
2024-01-05T03:13:01.182Z,3.90
2024-01-05T03:15:29.513Z,4.50
2024-01-05T03:17:57.880Z,4.30
2024-01-05T03:20:26.223Z,4.40
2024-01-05T03:22:54.469Z,4.70
2024-01-05T03:25:22.730Z,4.10
2024-01-05T03:27:50.994Z,4.50
2024-01-05T03:30:19.320Z,4.70
2024-01-05T03:32:47.843Z,4.20
2024-01-05T03:35:16.743Z,3.90
2024-01-05T03:37:44.954Z,4.90
2024-01-05T03:40:13.229Z,4.30
2024-01-05T03:42:41.619Z,3.90
2024-01-05T03:45:10.021Z,3.80
2024-01-05T03:47:38.434Z,4.10
2024-01-05T03:50:07.879Z,4.30
2024-01-05T03:52:37.923Z,4.10
2024-01-05T03:55:06.432Z,4.10
2024-01-05T03:57:34.810Z,3.90
2024-01-05T04:00:03.728Z,4.00
2024-01-05T04:02:33.583Z,4.00
2024-01-05T04:05:02.115Z,4.50
2024-01-05T04:07:30.344Z,4.30
2024-01-05T04:09:58.875Z,4.40
2024-01-05T04:12:27.265Z,4.30
2024-01-05T04:14:55.472Z,4.70
2024-01-05T04:17:24.083Z,4.60
2024-01-05T04:19:52.652Z,4.40
2024-01-05T04:22:21.164Z,4.00
2024-01-05T04:24:49.426Z,4.40
2024-01-05T04:27:17.779Z,4.70
2024-01-05T04:29:46.074Z,4.10
2024-01-05T04:32:14.422Z,5.10
2024-01-05T04:34:42.875Z,4.90
2024-01-05T04:37:11.157Z,4.20
2024-01-05T04:39:39.492Z,4.80
2024-01-05T04:42:07.842Z,4.60
2024-01-05T04:44:36.198Z,4.40
2024-01-05T04:47:04.694Z,4.20
2024-01-05T04:49:35.494Z,4.80
2024-01-05T04:52:04.304Z,4.90
2024-01-05T04:54:32.743Z,5.20
2024-01-05T04:57:03.209Z,5.30
2024-01-05T04:59:31.873Z,5.30
2024-01-05T05:02:00.886Z,4.90
2024-01-05T05:04:29.200Z,4.90
2024-01-05T05:06:57.912Z,5.90
2024-01-05T05:09:26.226Z,5.40
2024-01-05T05:11:54.605Z,4.80
2024-01-05T05:14:22.866Z,5.30
2024-01-05T05:16:52.806Z,5.40
2024-01-05T05:19:23.517Z,5.70
2024-01-05T05:21:53.696Z,5.80
2024-01-05T05:24:22.050Z,5.50
2024-01-05T05:26:50.572Z,6.00
2024-01-05T05:29:19.895Z,6.30
2024-01-05T05:31:48.284Z,6.10
2024-01-05T05:34:18.619Z,6.20
2024-01-05T05:36:47.054Z,6.50
2024-01-05T05:39:16.370Z,6.80
2024-01-05T05:41:44.844Z,8.10
2024-01-05T05:44:13.418Z,7.00
2024-01-05T05:46:41.685Z,7.80
2024-01-05T05:49:11.664Z,7.00
2024-01-05T05:51:40.112Z,8.00
2024-01-05T05:54:08.377Z,8.50
2024-01-05T05:56:36.708Z,8.60
2024-01-05T05:59:05.015Z,8.70
2024-01-05T06:01:33.345Z,9.10
2024-01-05T06:04:01.980Z,8.20
2024-01-05T06:06:30.681Z,8.00
2024-01-05T06:08:59.025Z,7.90
2024-01-05T06:11:28.117Z,7.70
2024-01-05T06:13:57.877Z,8.10
2024-01-05T06:16:26.959Z,8.00
2024-01-05T06:18:55.460Z,7.50
2024-01-05T06:21:24.045Z,7.90
2024-01-05T06:23:52.468Z,7.20
2024-01-05T06:26:21.017Z,11.50
2024-01-05T06:28:49.363Z,7.80
2024-01-05T06:31:17.750Z,7.00
2024-01-05T06:33:46.221Z,7.10
2024-01-05T06:36:14.517Z,6.90
2024-01-05T06:38:42.790Z,8.20
2024-01-05T06:41:11.049Z,7.10
2024-01-05T06:43:39.378Z,7.70
2024-01-05T06:46:07.742Z,7.10
2024-01-05T06:48:36.329Z,7.10
2024-01-05T06:51:05.156Z,7.20
2024-01-05T06:53:33.581Z,7.50
2024-01-05T06:56:01.996Z,7.60
2024-01-05T06:58:30.251Z,9.40
2024-01-05T07:00:58.513Z,9.80
2024-01-05T07:03:27.191Z,11.80
2024-01-05T07:05:56.039Z,9.50
2024-01-05T07:08:24.236Z,13.10
2024-01-05T07:10:52.645Z,9.80
2024-01-05T07:13:20.837Z,9.40
2024-01-05T07:15:49.136Z,9.70
2024-01-05T07:18:17.658Z,11.60
2024-01-05T07:20:46.337Z,11.00
2024-01-05T07:23:14.613Z,12.50
2024-01-05T07:25:42.868Z,13.60
2024-01-05T07:28:11.145Z,12.50
2024-01-05T07:30:40.125Z,17.60
2024-01-05T07:33:09.634Z,16.00
2024-01-05T07:35:38.029Z,14.70
2024-01-05T07:38:06.282Z,12.50
2024-01-05T07:40:34.579Z,11.70
2024-01-05T07:43:04.865Z,11.60
2024-01-05T07:45:33.139Z,14.50
2024-01-05T07:48:01.726Z,15.30
2024-01-05T07:50:31.433Z,15.60
2024-01-05T07:53:03.180Z,15.20
2024-01-05T07:55:31.665Z,15.60
2024-01-05T07:58:00.001Z,16.40
2024-01-05T08:00:28.401Z,18.50
2024-01-05T08:02:57.041Z,22.50
2024-01-05T08:05:25.566Z,20.50
2024-01-05T08:07:53.865Z,18.00
2024-01-05T08:10:22.544Z,21.60
2024-01-05T08:12:50.813Z,27.80
2024-01-05T08:15:19.286Z,24.80
2024-01-05T08:17:47.687Z,27.70
2024-01-05T08:20:16.363Z,20.70
2024-01-05T08:22:44.722Z,18.80
2024-01-05T08:25:20.676Z,16.20
2024-01-05T08:27:50.132Z,12.60
2024-01-05T08:30:20.125Z,11.70
2024-01-05T08:32:56.564Z,11.70
2024-01-05T08:35:25.187Z,12.80
2024-01-05T08:37:54.530Z,13.40
2024-01-05T08:40:27.750Z,15.90
2024-01-05T08:42:56.736Z,13.40
2024-01-05T08:45:28.911Z,12.90
2024-01-05T08:47:57.416Z,14.30
2024-01-05T08:50:25.670Z,14.10
2024-01-05T08:52:53.991Z,17.80
2024-01-05T08:55:22.322Z,15.40
2024-01-05T08:57:50.651Z,14.90
2024-01-05T09:00:20.416Z,15.40
2024-01-05T09:02:48.901Z,13.40
2024-01-05T09:05:17.333Z,11.70
2024-01-05T09:07:46.142Z,13.70
2024-01-05T09:10:14.513Z,10.60
2024-01-05T09:12:42.980Z,10.20
2024-01-05T09:15:11.580Z,12.10
2024-01-05T09:17:40.737Z,10.40
2024-01-05T09:20:13.739Z,10.40
2024-01-05T09:22:42.336Z,10.20
2024-01-05T09:25:10.914Z,10.00
2024-01-05T09:27:39.438Z,9.60
2024-01-05T09:30:09.651Z,11.80
2024-01-05T09:32:38.305Z,11.40
2024-01-05T09:35:10.378Z,10.90
2024-01-05T09:37:38.789Z,12.40
2024-01-05T09:40:12.146Z,9.50
2024-01-05T09:42:55.960Z,17.90
2024-01-05T09:45:28.388Z,9.30
2024-01-05T09:47:59.536Z,30.60
2024-01-05T09:50:29.752Z,10.90
2024-01-05T09:52:58.818Z,11.70
2024-01-05T09:55:27.457Z,10.60
2024-01-05T09:57:57.023Z,14.10
2024-01-05T10:00:27.998Z,12.20
2024-01-05T10:02:59.129Z,12.10
2024-01-05T10:05:28.611Z,15.20
2024-01-05T10:07:57.455Z,10.00
2024-01-05T10:10:46.849Z,25.30
2024-01-05T10:13:16.711Z,10.70
2024-01-05T10:15:55.625Z,12.90
2024-01-05T10:18:26.233Z,8.30
2024-01-05T10:20:58.750Z,12.20
2024-01-05T10:23:27.228Z,8.50
2024-01-05T10:25:55.652Z,10.10
2024-01-05T10:28:33.662Z,15.00
2024-01-05T10:31:17.285Z,11.30
2024-01-05T10:33:57.293Z,11.30
2024-01-05T10:36:28.268Z,12.60
2024-01-05T10:38:58.244Z,10.10
2024-01-05T10:41:29.876Z,11.00
2024-01-05T10:43:59.695Z,12.40
2024-01-05T10:46:29.649Z,10.80
2024-01-05T10:48:58.293Z,10.60
2024-01-05T10:51:29.012Z,12.10
2024-01-05T10:53:59.190Z,13.20
2024-01-05T10:56:30.930Z,13.30
2024-01-05T10:58:59.550Z,13.30
2024-01-05T11:01:32.424Z,13.50
2024-01-05T11:04:03.144Z,14.10
2024-01-05T11:06:33.936Z,14.60
2024-01-05T11:09:29.789Z,15.00
2024-01-05T11:12:33.326Z,15.00
2024-01-05T11:15:27.248Z,15.90
2024-01-05T11:18:24.266Z,19.00
2024-01-05T11:21:12.729Z,16.40
2024-01-05T11:23:43.662Z,15.70
2024-01-05T11:26:33.463Z,15.70
2024-01-05T11:29:05.932Z,26.00
2024-01-05T11:31:46.463Z,19.70
2024-01-05T11:34:32.097Z,22.20
2024-01-05T11:37:00.779Z,17.70
2024-01-05T11:39:47.368Z,72.90
2024-01-05T11:42:25.008Z,17.20
2024-01-05T11:44:53.848Z,12.90
2024-01-05T11:47:42.379Z,13.50
2024-01-05T11:50:29.182Z,13.60
2024-01-05T11:53:08.160Z,15.30
2024-01-05T11:55:42.817Z,16.10
2024-01-05T11:58:16.638Z,18.80
2024-01-05T12:00:47.698Z,20.50
2024-01-05T12:03:18.640Z,18.80
2024-01-05T12:05:51.193Z,18.10
2024-01-05T12:08:20.237Z,19.30
2024-01-05T12:10:59.553Z,20.60
2024-01-05T12:13:29.013Z,21.10
2024-01-05T12:16:02.094Z,19.30
2024-01-05T12:18:38.240Z,18.60
2024-01-05T12:21:08.833Z,15.90
2024-01-05T12:23:38.849Z,19.10
2024-01-05T12:26:11.246Z,20.30
2024-01-05T12:28:42.975Z,20.00
2024-01-05T12:31:12.183Z,18.80
2024-01-05T12:33:41.986Z,18.20
2024-01-05T12:36:14.520Z,18.00
2024-01-05T12:38:44.247Z,18.10
2024-01-05T12:41:18.607Z,19.40
2024-01-05T12:43:51.621Z,19.10
2024-01-05T12:46:24.421Z,18.10
2024-01-05T12:48:53.281Z,17.30
2024-01-05T12:51:24.113Z,18.50
2024-01-05T12:54:05.085Z,18.30
2024-01-05T12:56:34.227Z,18.50
2024-01-05T12:59:05.060Z,19.50
2024-01-05T13:01:33.696Z,17.70
2024-01-05T13:04:02.416Z,19.50
2024-01-05T13:06:31.455Z,20.10
2024-01-05T13:09:00.345Z,19.80
2024-01-05T13:11:29.455Z,19.80
2024-01-05T13:13:58.110Z,18.90
2024-01-05T13:16:27.106Z,19.20
2024-01-05T13:18:55.491Z,18.50
2024-01-05T13:21:23.993Z,19.10
2024-01-05T13:23:56.506Z,21.70
2024-01-05T13:26:25.141Z,21.40
2024-01-05T13:28:53.521Z,23.10
2024-01-05T13:31:22.105Z,23.80
2024-01-05T13:33:50.879Z,24.40
2024-01-05T13:36:19.341Z,33.20
2024-01-05T13:38:49.381Z,24.30
2024-01-05T13:41:18.499Z,21.70
2024-01-05T13:43:46.891Z,21.20
2024-01-05T13:46:15.171Z,22.00
2024-01-05T13:48:43.542Z,22.60
2024-01-05T13:51:11.892Z,21.50
2024-01-05T13:53:40.228Z,23.70
2024-01-05T13:56:08.665Z,22.70
2024-01-05T13:58:38.099Z,23.90
2024-01-05T14:01:07.111Z,27.10
2024-01-05T14:03:35.617Z,23.60
2024-01-05T14:06:10.184Z,22.50
2024-01-05T14:08:38.852Z,21.90
2024-01-05T14:11:13.668Z,23.00
2024-01-05T14:13:42.684Z,26.20
2024-01-05T14:16:11.000Z,34.10
2024-01-05T14:18:39.544Z,34.10
2024-01-05T14:21:08.383Z,31.30
2024-01-05T14:23:38.773Z,38.80
2024-01-05T14:26:11.479Z,42.70
2024-01-05T14:28:46.499Z,36.70
2024-01-05T14:31:26.559Z,37.60
2024-01-05T14:33:56.997Z,41.30
2024-01-05T14:36:26.308Z,34.80
2024-01-05T14:38:55.610Z,34.00
2024-01-05T14:41:28.991Z,32.80
2024-01-05T14:43:58.272Z,32.60
2024-01-05T14:46:27.257Z,33.00
2024-01-05T14:48:55.616Z,39.10
2024-01-05T14:51:24.586Z,36.40
2024-01-05T14:53:53.157Z,37.50
2024-01-05T14:56:21.403Z,36.90
2024-01-05T14:58:51.516Z,34.40
2024-01-05T15:01:20.371Z,36.70
2024-01-05T15:03:49.068Z,35.20
2024-01-05T15:06:26.993Z,43.10
2024-01-05T15:08:56.428Z,41.60
2024-01-05T15:11:24.719Z,47.30
2024-01-05T15:13:53.038Z,44.70
2024-01-05T15:16:21.434Z,48.20
2024-01-05T15:18:49.946Z,47.60
2024-01-05T15:21:26.457Z,44.20
2024-01-05T15:23:55.283Z,42.30
2024-01-05T15:26:23.479Z,39.00
2024-01-05T15:28:51.756Z,34.10
2024-01-05T15:31:21.198Z,37.30
2024-01-05T15:33:51.632Z,41.40
2024-01-05T15:36:24.824Z,51.40
2024-01-05T15:38:53.634Z,52.50
2024-01-05T15:41:22.015Z,50.60
2024-01-05T15:43:57.267Z,48.50
2024-01-05T15:46:27.935Z,46.00
2024-01-05T15:48:59.492Z,45.00
2024-01-05T15:51:31.449Z,43.20
2024-01-05T15:54:01.488Z,47.30
2024-01-05T15:56:30.297Z,46.00
2024-01-05T15:58:58.667Z,45.60
2024-01-05T16:01:27.210Z,45.70
2024-01-05T16:03:55.839Z,50.80
2024-01-05T16:06:24.661Z,50.50
2024-01-05T16:08:53.318Z,52.60
2024-01-05T16:11:32.058Z,52.90
2024-01-05T16:14:01.022Z,52.00
2024-01-05T16:16:29.292Z,44.90
2024-01-05T16:18:58.992Z,55.80
2024-01-05T16:21:29.182Z,61.40
2024-01-05T16:23:59.518Z,57.90
2024-01-05T16:26:31.948Z,50.30
2024-01-05T16:29:00.318Z,53.20
2024-01-05T16:31:28.833Z,49.10
2024-01-05T16:33:57.450Z,48.60
2024-01-05T16:36:27.074Z,48.00
2024-01-05T16:38:55.398Z,48.10
2024-01-05T16:41:25.866Z,52.00
2024-01-05T16:43:56.698Z,46.50
2024-01-05T16:46:25.561Z,47.70
2024-01-05T16:48:54.879Z,50.40
2024-01-05T16:51:24.287Z,48.90
2024-01-05T16:53:54.514Z,46.00
2024-01-05T16:56:26.395Z,51.40
2024-01-05T16:58:57.745Z,46.70
2024-01-05T17:01:26.875Z,45.50
2024-01-05T17:03:56.872Z,52.60
2024-01-05T17:06:27.300Z,51.70
2024-01-05T17:08:55.992Z,57.30
2024-01-05T17:11:27.005Z,60.00
2024-01-05T17:13:57.822Z,60.20
2024-01-05T17:16:28.729Z,62.40
2024-01-05T17:19:01.964Z,58.00
2024-01-05T17:21:30.573Z,61.20
2024-01-05T17:23:59.223Z,63.70
2024-01-05T17:26:27.545Z,76.90
2024-01-05T17:28:58.191Z,66.70
2024-01-05T17:31:26.672Z,64.00
2024-01-05T17:33:55.392Z,71.00
2024-01-05T17:36:28.430Z,77.80
2024-01-05T17:38:58.076Z,89.80
2024-01-05T17:41:26.397Z,91.50
2024-01-05T17:43:54.671Z,87.40
2024-01-05T17:46:23.378Z,87.00
2024-01-05T17:48:51.757Z,89.80
2024-01-05T17:51:20.256Z,65.70
2024-01-05T17:53:49.864Z,79.50
2024-01-05T17:56:22.550Z,77.50
2024-01-05T17:58:51.025Z,85.80
2024-01-05T18:01:19.480Z,98.50
2024-01-05T18:03:48.148Z,98.10
2024-01-05T18:06:17.063Z,101.00
2024-01-05T18:08:45.495Z,82.90
2024-01-05T18:11:26.879Z,82.80
2024-01-05T18:13:56.063Z,80.30
2024-01-05T18:16:29.521Z,81.20
2024-01-05T18:18:58.617Z,79.30
2024-01-05T18:21:29.147Z,81.50
2024-01-05T18:24:01.170Z,78.00
2024-01-05T18:26:29.674Z,87.20
2024-01-05T18:29:01.377Z,84.80
2024-01-05T18:31:36.971Z,68.00
2024-01-05T18:34:09.819Z,91.70
2024-01-05T18:36:42.945Z,90.90
2024-01-05T18:39:11.345Z,85.90
2024-01-05T18:41:39.870Z,83.30
2024-01-05T18:44:10.233Z,82.50
2024-01-05T18:46:38.513Z,84.80
2024-01-05T18:49:07.867Z,86.60
2024-01-05T18:51:36.552Z,91.60
2024-01-05T18:54:07.796Z,88.90
2024-01-05T18:56:36.559Z,97.80
2024-01-05T18:59:05.014Z,96.40
2024-01-05T19:01:33.777Z,93.80
2024-01-05T19:04:02.487Z,100.60
2024-01-05T19:06:30.898Z,98.10
2024-01-05T19:08:59.168Z,102.40
2024-01-05T19:11:27.544Z,108.90
2024-01-05T19:13:55.809Z,134.60
2024-01-05T19:16:24.806Z,118.30
2024-01-05T19:18:53.266Z,118.40
2024-01-05T19:21:21.587Z,114.90
2024-01-05T19:23:49.902Z,111.40
2024-01-05T19:26:21.831Z,113.00
2024-01-05T19:28:50.069Z,106.90
2024-01-05T19:31:18.541Z,106.90
2024-01-05T19:33:53.089Z,105.30
2024-01-05T19:39:01.709Z,102.10
2024-01-05T19:41:29.957Z,99.10
2024-01-05T19:44:00.462Z,102.90
2024-01-05T19:46:30.371Z,102.30
2024-01-05T19:48:58.708Z,118.20
2024-01-05T19:51:27.095Z,119.00
2024-01-05T19:53:55.449Z,109.50
2024-01-05T19:56:23.722Z,86.80
2024-01-05T19:58:52.015Z,121.30
2024-01-05T20:01:20.472Z,107.00
2024-01-05T20:03:48.948Z,96.30
2024-01-05T20:06:17.353Z,88.50
2024-01-05T20:08:45.812Z,89.50
2024-01-05T20:11:14.670Z,86.30
2024-01-05T20:13:43.214Z,84.70
2024-01-05T20:16:14.764Z,89.20
2024-01-05T20:18:44.190Z,90.80
2024-01-05T20:21:16.524Z,90.90
2024-01-05T20:23:44.772Z,84.30
2024-01-05T20:26:20.397Z,81.80
2024-01-05T20:28:51.334Z,84.60
2024-01-05T20:31:20.720Z,87.20
2024-01-05T20:33:52.903Z,94.70
2024-01-05T20:36:21.617Z,90.60
2024-01-05T20:38:49.842Z,91.90
2024-01-05T20:41:18.079Z,90.10
2024-01-05T20:43:47.548Z,94.50
2024-01-05T20:46:17.854Z,88.60
2024-01-05T20:48:46.294Z,83.70
2024-01-05T20:51:20.121Z,84.30
2024-01-05T20:53:48.458Z,85.40
2024-01-05T20:56:16.817Z,85.00
2024-01-05T20:58:46.428Z,90.50
2024-01-05T21:01:17.877Z,92.80
2024-01-05T21:03:47.750Z,102.00
2024-01-05T21:06:16.116Z,107.60
2024-01-05T21:08:44.432Z,117.70
2024-01-05T21:11:21.019Z,110.60
2024-01-05T21:13:49.424Z,100.30
2024-01-05T21:16:17.890Z,101.80
2024-01-05T21:18:46.398Z,77.60
2024-01-05T21:21:14.779Z,78.70
2024-01-05T21:23:43.076Z,69.10
2024-01-05T21:26:11.424Z,70.20
2024-01-05T21:28:42.892Z,73.30
2024-01-05T21:31:11.404Z,68.60
2024-01-05T21:33:41.103Z,65.90
2024-01-05T21:36:12.500Z,61.80
2024-01-05T21:38:40.798Z,61.50
2024-01-05T21:41:09.114Z,64.60
2024-01-05T21:43:37.402Z,59.90
2024-01-05T21:46:05.789Z,59.50
2024-01-05T21:48:34.236Z,57.60
2024-01-05T21:51:02.535Z,57.40
2024-01-05T21:53:30.931Z,57.50
2024-01-05T21:56:00.645Z,57.30
2024-01-05T21:58:30.188Z,59.00
2024-01-05T22:00:58.790Z,60.30
2024-01-05T22:03:27.416Z,63.40
2024-01-05T22:05:59.407Z,58.20
2024-01-05T22:08:27.871Z,59.60
2024-01-05T22:10:57.074Z,53.40
2024-01-05T22:13:26.267Z,54.40
2024-01-05T22:16:03.017Z,55.30
2024-01-05T22:18:34.670Z,51.80
2024-01-05T22:21:11.345Z,54.50
2024-01-05T22:23:41.704Z,60.30
2024-01-05T22:26:20.543Z,52.20
2024-01-05T22:28:49.894Z,50.90
2024-01-05T22:31:18.325Z,54.30
2024-01-05T22:33:47.706Z,55.40
2024-01-05T22:36:16.378Z,54.40
2024-01-05T22:38:45.214Z,55.50
2024-01-05T22:41:13.963Z,53.30
2024-01-05T22:43:42.650Z,53.70
2024-01-05T22:46:17.647Z,54.40
2024-01-05T22:48:48.614Z,52.10
2024-01-05T22:51:25.631Z,54.00
2024-01-05T22:53:54.305Z,59.60
2024-01-05T22:56:22.760Z,64.50
2024-01-05T22:58:51.054Z,54.80
2024-01-05T23:01:26.655Z,58.10
2024-01-05T23:03:55.252Z,58.90
2024-01-05T23:06:26.315Z,58.60
2024-01-05T23:08:54.695Z,56.80
2024-01-05T23:11:23.481Z,59.00
2024-01-05T23:13:51.745Z,59.00
2024-01-05T23:16:20.073Z,57.30
2024-01-05T23:18:48.597Z,57.60
2024-01-05T23:21:17.261Z,55.80
2024-01-05T23:23:45.551Z,58.30
2024-01-05T23:26:20.352Z,57.30
2024-01-05T23:31:19.882Z,57.20
2024-01-05T23:34:03.818Z,62.80
2024-01-05T23:36:38.022Z,54.00
2024-01-05T23:39:06.506Z,58.50
2024-01-05T23:41:35.969Z,56.60
2024-01-05T23:44:05.080Z,55.90
2024-01-05T23:46:33.416Z,58.40
2024-01-05T23:49:01.770Z,54.60
2024-01-05T23:51:30.189Z,56.60
2024-01-05T23:53:58.453Z,60.40
2024-01-05T23:56:26.920Z,57.40
2024-01-05T23:58:55.272Z,58.60
